createdAt,value
2023-04-03T00:00:50.917Z,100072.91
2023-04-03T00:03:20.199Z,100081.28
2023-04-03T00:05:47.808Z,100070.91
2023-04-03T00:08:15.914Z,100074.66
2023-04-03T00:10:44.118Z,100075.50
2023-04-03T00:13:11.732Z,100086.97
2023-04-03T00:15:39.837Z,100082.09
2023-04-03T00:18:08.327Z,100080.78
2023-04-03T00:20:36.107Z,100076.78
2023-04-03T00:23:04.132Z,100068.69
2023-04-03T00:25:32.150Z,100067.69
2023-04-03T00:27:59.984Z,100066.19
2023-04-03T00:30:27.733Z,100070.00
2023-04-03T00:32:55.987Z,100067.84
2023-04-03T00:35:24.114Z,100070.50
2023-04-03T00:37:55.411Z,100065.94
2023-04-03T00:40:25.037Z,100064.69
2023-04-03T00:42:57.726Z,100062.06
2023-04-03T00:45:31.925Z,100068.22
2023-04-03T00:48:01.177Z,100069.59
2023-04-03T00:50:30.975Z,100064.72
2023-04-03T00:52:59.138Z,100070.19
2023-04-03T00:55:27.457Z,100063.06
2023-04-03T00:57:56.466Z,100066.75
2023-04-03T01:00:24.959Z,100067.28
2023-04-03T01:02:52.851Z,100069.66
2023-04-03T01:05:21.806Z,100068.31
2023-04-03T01:07:50.776Z,100073.03
2023-04-03T01:10:20.828Z,100067.16
2023-04-03T01:12:51.989Z,100072.81
2023-04-03T01:15:26.034Z,100068.78
2023-04-03T01:17:57.554Z,100069.28
2023-04-03T01:20:25.148Z,100077.44
2023-04-03T01:23:11.333Z,100072.13
2023-04-03T01:25:39.243Z,100063.03
2023-04-03T01:28:08.072Z,100064.59
2023-04-03T01:30:50.022Z,100071.16
2023-04-03T01:33:18.178Z,100059.25
2023-04-03T01:35:50.825Z,100077.34
2023-04-03T01:38:19.384Z,100066.16
2023-04-03T01:40:46.896Z,100064.00
2023-04-03T01:43:14.567Z,100063.41
2023-04-03T01:45:42.585Z,100061.59
2023-04-03T01:48:10.461Z,100067.91
2023-04-03T01:50:38.536Z,100058.75
2023-04-03T01:53:10.544Z,100064.59
2023-04-03T01:55:38.130Z,100066.31
2023-04-03T01:58:06.250Z,100073.03
2023-04-03T02:00:34.026Z,100075.72
2023-04-03T02:03:02.627Z,100064.69
2023-04-03T02:05:30.810Z,100065.88
2023-04-03T02:07:58.367Z,100065.62
2023-04-03T02:10:26.443Z,100057.69
2023-04-03T02:12:54.020Z,100074.19
2023-04-03T02:15:21.966Z,100061.53
2023-04-03T02:17:50.093Z,100071.16
2023-04-03T02:20:17.831Z,100067.53
2023-04-03T02:22:45.312Z,100070.81
2023-04-03T02:25:14.082Z,100067.81
2023-04-03T02:27:41.762Z,100072.38
2023-04-03T02:30:12.039Z,100077.56
2023-04-03T02:32:40.006Z,100079.59
2023-04-03T02:35:07.837Z,100074.69
2023-04-03T02:37:36.123Z,100067.22
2023-04-03T02:40:05.432Z,100079.09
2023-04-03T02:42:33.279Z,100073.19
2023-04-03T02:45:01.823Z,100078.34
2023-04-03T02:47:30.144Z,100077.44
2023-04-03T02:49:57.829Z,100077.13
2023-04-03T02:52:25.307Z,100079.78
2023-04-03T02:54:54.332Z,100086.25
2023-04-03T02:57:25.196Z,100072.22
2023-04-03T02:59:53.132Z,100086.47
2023-04-03T03:02:20.930Z,100080.56
2023-04-03T03:04:48.446Z,100085.97
2023-04-03T03:07:19.574Z,100089.91
2023-04-03T03:09:47.211Z,100085.28
2023-04-03T03:12:14.800Z,100087.63
2023-04-03T03:14:44.139Z,100092.00
2023-04-03T03:17:11.796Z,100100.69
2023-04-03T03:19:39.818Z,100091.87
2023-04-03T03:22:11.085Z,100099.62
2023-04-03T03:24:38.628Z,100094.84
2023-04-03T03:27:06.529Z,100092.88
2023-04-03T03:29:34.563Z,100089.78
2023-04-03T03:32:03.015Z,100094.16
2023-04-03T03:34:30.615Z,100093.75
2023-04-03T03:36:58.551Z,100097.87
2023-04-03T03:39:26.433Z,100107.72
2023-04-03T03:41:56.402Z,100103.84
2023-04-03T03:44:24.454Z,100107.31
2023-04-03T03:46:53.679Z,100100.72
2023-04-03T03:49:21.621Z,100101.03
2023-04-03T03:51:49.706Z,100098.53
2023-04-03T03:54:17.774Z,100097.53
2023-04-03T03:56:45.557Z,100092.31
2023-04-03T03:59:16.675Z,100101.78
2023-04-03T04:01:44.378Z,100097.25
2023-04-03T04:04:13.086Z,100096.16
2023-04-03T04:06:40.933Z,100095.75
2023-04-03T04:09:09.972Z,100096.44
2023-04-03T04:11:38.017Z,100101.00
2023-04-03T04:14:05.879Z,100101.50
2023-04-03T04:16:33.411Z,100087.63
2023-04-03T04:19:02.266Z,100086.91
2023-04-03T04:21:30.699Z,100099.09
2023-04-03T04:23:58.561Z,100093.53
2023-04-03T04:26:27.291Z,100096.50
2023-04-03T04:28:55.018Z,100098.78
2023-04-03T04:31:22.772Z,100099.47
2023-04-03T04:33:51.108Z,100102.53
2023-04-03T04:36:19.431Z,100103.53
2023-04-03T04:38:47.415Z,100105.19
2023-04-03T04:41:16.125Z,100103.47
2023-04-03T04:43:43.945Z,100102.09
2023-04-03T04:46:13.488Z,100098.88
2023-04-03T04:48:43.054Z,100105.47
2023-04-03T04:51:11.758Z,100106.28
2023-04-03T04:53:39.722Z,100107.12
2023-04-03T04:56:08.624Z,100110.41
2023-04-03T04:58:36.976Z,100105.84
2023-04-03T05:01:08.763Z,100097.28
2023-04-03T05:03:37.424Z,100103.41
2023-04-03T05:06:06.282Z,100108.44
2023-04-03T05:08:34.268Z,100105.56
2023-04-03T05:11:02.567Z,100102.81
2023-04-03T05:13:31.503Z,100094.13
2023-04-03T05:15:59.256Z,100094.44
2023-04-03T05:18:27.342Z,100096.91
2023-04-03T05:20:56.319Z,100101.06
2023-04-03T05:23:27.463Z,100093.53
2023-04-03T05:25:56.630Z,100091.25
2023-04-03T05:28:24.434Z,100098.97
2023-04-03T05:30:59.229Z,100104.81
2023-04-03T05:33:27.811Z,100105.50
2023-04-03T05:35:56.392Z,100102.53
2023-04-03T05:38:24.722Z,100099.66
2023-04-03T05:40:53.963Z,100105.00
2023-04-03T05:43:21.540Z,100107.78
2023-04-03T05:45:51.899Z,100102.84
2023-04-03T05:48:20.159Z,100104.19
2023-04-03T05:50:48.485Z,100109.38
2023-04-03T05:53:22.522Z,100109.75
2023-04-03T05:55:50.664Z,100108.91
2023-04-03T05:58:18.509Z,100107.88
2023-04-03T06:00:46.757Z,100117.78
2023-04-03T06:03:18.258Z,100107.06
2023-04-03T06:05:47.632Z,100112.34
2023-04-03T06:08:15.812Z,100114.94
2023-04-03T06:10:43.657Z,100115.00
2023-04-03T06:13:12.706Z,100125.81
2023-04-03T06:15:41.718Z,100117.47
2023-04-03T06:18:11.072Z,100120.09
2023-04-03T06:20:38.937Z,100122.72
2023-04-03T06:23:08.186Z,100121.06
2023-04-03T06:25:36.420Z,100119.16
2023-04-03T06:28:04.043Z,100126.06
2023-04-03T06:30:32.249Z,100123.19
2023-04-03T06:33:00.721Z,100122.53
2023-04-03T06:35:29.913Z,100119.19
2023-04-03T06:37:57.926Z,100117.63
2023-04-03T06:40:26.876Z,100119.66
2023-04-03T06:42:54.373Z,100115.69
2023-04-03T06:45:23.036Z,100117.50
2023-04-03T06:47:50.692Z,100113.44
2023-04-03T06:50:18.239Z,100119.88
2023-04-03T06:52:46.135Z,100113.44
2023-04-03T06:55:13.917Z,100115.59
2023-04-03T06:57:41.445Z,100112.28
2023-04-03T07:00:11.335Z,100118.25
2023-04-03T07:02:38.980Z,100120.53
2023-04-03T07:05:06.937Z,100133.19
2023-04-03T07:07:35.567Z,100135.81
2023-04-03T07:10:03.133Z,100138.66
2023-04-03T07:12:30.674Z,100137.41
2023-04-03T07:14:58.806Z,100132.59
2023-04-03T07:17:26.832Z,100132.53
2023-04-03T07:19:54.457Z,100129.38
2023-04-03T07:22:22.228Z,100132.63
2023-04-03T07:24:49.659Z,100136.72
2023-04-03T07:27:17.210Z,100142.53
2023-04-03T07:29:45.765Z,100146.28
2023-04-03T07:32:13.426Z,100144.22
2023-04-03T07:34:41.338Z,100144.38
2023-04-03T07:37:10.366Z,100147.47
2023-04-03T07:39:37.988Z,100149.13
2023-04-03T07:42:05.499Z,100146.63
2023-04-03T07:44:33.842Z,100136.84
2023-04-03T07:47:01.264Z,100136.56
2023-04-03T07:49:28.889Z,100135.63
2023-04-03T07:51:56.689Z,100132.59
2023-04-03T07:54:24.165Z,100135.41
2023-04-03T07:56:51.694Z,100132.44
2023-04-03T07:59:19.705Z,100133.06
2023-04-03T08:01:47.296Z,100129.25
2023-04-03T08:04:15.275Z,100132.97
2023-04-03T08:06:46.771Z,100134.16
2023-04-03T08:09:16.622Z,100135.53
2023-04-03T08:11:44.600Z,100125.06
2023-04-03T08:14:17.854Z,100135.66
2023-04-03T08:16:47.377Z,100140.50
2023-04-03T08:19:25.566Z,100138.13
2023-04-03T08:21:55.883Z,100138.47
2023-04-03T08:24:23.311Z,100136.59
2023-04-03T08:26:50.920Z,100137.72
2023-04-03T08:29:18.829Z,100133.00
2023-04-03T08:31:47.686Z,100135.25
2023-04-03T08:34:15.879Z,100135.00
2023-04-03T08:36:44.031Z,100148.19
2023-04-03T08:39:12.081Z,100136.81
2023-04-03T08:41:49.169Z,100149.41
2023-04-03T08:44:27.531Z,100145.75
2023-04-03T08:47:15.519Z,100151.53
2023-04-03T08:49:52.468Z,100144.59
2023-04-03T08:52:21.652Z,100146.81
2023-04-03T08:54:52.009Z,100148.94
2023-04-03T08:57:26.422Z,100141.94
2023-04-03T08:59:54.398Z,100146.28
2023-04-03T09:02:33.850Z,100153.00
2023-04-03T09:05:03.912Z,100152.91
2023-04-03T09:07:44.171Z,100151.91
2023-04-03T09:10:13.993Z,100156.41
2023-04-03T09:12:50.413Z,100158.50
2023-04-03T09:15:35.604Z,100168.69
2023-04-03T09:18:05.907Z,100161.25
2023-04-03T09:20:49.132Z,100165.19
2023-04-03T09:23:35.085Z,100160.47
2023-04-03T09:26:06.385Z,100168.00
2023-04-03T09:28:43.074Z,100165.25
2023-04-03T09:31:17.939Z,100166.37
2023-04-03T09:33:46.528Z,100169.75
2023-04-03T09:36:14.815Z,100170.03
2023-04-03T09:38:43.497Z,100173.88
2023-04-03T09:41:17.306Z,100168.88
2023-04-03T09:43:54.143Z,100174.25
2023-04-03T09:46:27.897Z,100169.94
2023-04-03T09:49:09.024Z,100173.22
2023-04-03T09:51:37.700Z,100167.75
2023-04-03T09:54:27.468Z,100172.09
2023-04-03T09:56:56.918Z,100171.78
2023-04-03T09:59:24.969Z,100165.75
2023-04-03T10:02:04.054Z,100166.63
2023-04-03T10:04:39.286Z,100163.72
2023-04-03T10:07:26.819Z,100168.34
2023-04-03T10:10:13.402Z,100170.78
2023-04-03T10:12:53.260Z,100163.41
2023-04-03T10:15:21.389Z,100161.94
2023-04-03T10:17:52.733Z,100164.84
2023-04-03T10:20:30.433Z,100172.19
2023-04-03T10:23:18.309Z,100168.03
2023-04-03T10:26:02.678Z,100170.41
2023-04-03T10:28:42.654Z,100160.25
2023-04-03T10:31:17.127Z,100163.75
2023-04-03T10:34:03.681Z,100160.22
2023-04-03T10:36:51.961Z,100157.81
2023-04-03T10:39:27.949Z,100155.94
2023-04-03T10:42:00.872Z,100166.37
2023-04-03T10:44:59.077Z,100168.19
2023-04-03T10:47:42.015Z,100168.50
2023-04-03T10:50:09.517Z,100173.28
2023-04-03T10:52:43.625Z,100166.81
2023-04-03T10:55:20.497Z,100160.97
2023-04-03T10:57:49.207Z,100167.53
2023-04-03T11:00:21.542Z,100168.91
2023-04-03T11:03:04.743Z,100168.47
2023-04-03T11:05:43.188Z,100157.47
2023-04-03T11:08:28.083Z,100162.06
2023-04-03T11:11:02.427Z,100164.50
2023-04-03T11:13:30.408Z,100159.22
2023-04-03T11:15:58.457Z,100151.75
2023-04-03T11:18:35.824Z,100154.78
2023-04-03T11:21:24.250Z,100150.56
2023-04-03T11:23:52.746Z,100148.53
2023-04-03T11:26:23.615Z,100151.44
2023-04-03T11:29:03.232Z,100147.03
2023-04-03T11:32:03.255Z,100152.81
2023-04-03T11:34:43.021Z,100147.31
2023-04-03T11:37:19.223Z,100150.13
2023-04-03T11:39:58.199Z,100150.81
2023-04-03T11:42:42.440Z,100149.56
2023-04-03T11:45:26.010Z,100152.34
2023-04-03T11:47:54.234Z,100157.78
2023-04-03T11:50:43.634Z,100157.97
2023-04-03T11:53:17.729Z,100149.09
2023-04-03T11:55:51.288Z,100148.81
2023-04-03T11:58:20.787Z,100153.25
2023-04-03T12:00:52.804Z,100150.16
2023-04-03T12:03:27.211Z,100157.38
2023-04-03T12:06:16.847Z,100156.50
2023-04-03T12:08:55.538Z,100149.91
2023-04-03T12:11:32.798Z,100155.75
2023-04-03T12:14:00.628Z,100151.25
2023-04-03T12:16:35.622Z,100148.41
2023-04-03T12:19:15.587Z,100155.28
2023-04-03T12:21:49.685Z,100149.91
2023-04-03T12:24:17.492Z,100151.03
2023-04-03T12:26:52.706Z,100154.72
2023-04-03T12:29:26.014Z,100151.25
2023-04-03T12:32:05.688Z,100159.94
2023-04-03T12:34:52.022Z,100156.41
2023-04-03T12:37:38.448Z,100158.16
2023-04-03T12:40:09.584Z,100159.75
2023-04-03T12:42:42.806Z,100155.81
2023-04-03T12:45:19.597Z,100156.16
2023-04-03T12:47:49.966Z,100155.75
2023-04-03T12:50:25.662Z,100160.16
2023-04-03T12:52:58.986Z,100158.47
2023-04-03T12:55:27.755Z,100156.41
2023-04-03T12:57:55.345Z,100159.19
2023-04-03T13:00:34.700Z,100161.69
2023-04-03T13:03:04.185Z,100160.78
2023-04-03T13:05:35.227Z,100152.44
2023-04-03T13:08:06.348Z,100155.56
2023-04-03T13:10:34.372Z,100151.53
2023-04-03T13:13:08.989Z,100160.28
2023-04-03T13:15:47.882Z,100150.69
2023-04-03T13:18:32.820Z,100158.19
2023-04-03T13:21:04.475Z,100149.09
2023-04-03T13:23:32.795Z,100155.13
2023-04-03T13:26:04.685Z,100156.09
2023-04-03T13:28:34.343Z,100154.47
2023-04-03T13:31:04.312Z,100161.12
2023-04-03T13:33:34.021Z,100157.22
2023-04-03T13:36:19.003Z,100146.84
2023-04-03T13:38:46.520Z,100153.16
2023-04-03T13:41:30.754Z,100154.97
2023-04-03T13:44:10.281Z,100157.88
2023-04-03T13:46:41.533Z,100151.03
2023-04-03T13:49:29.568Z,100147.28
2023-04-03T13:52:07.336Z,100153.59
2023-04-03T13:54:37.860Z,100141.38
2023-04-03T13:57:14.151Z,100140.53
2023-04-03T13:59:41.799Z,100143.44
2023-04-03T14:02:12.408Z,100145.22
2023-04-03T14:04:46.184Z,100148.87
2023-04-03T14:07:14.321Z,100144.69
2023-04-03T14:09:42.306Z,100144.81
2023-04-03T14:12:30.216Z,100149.34
2023-04-03T14:14:59.770Z,100149.41
2023-04-03T14:17:28.026Z,100148.25
2023-04-03T14:19:56.467Z,100146.63
2023-04-03T14:22:29.678Z,100143.25
2023-04-03T14:24:57.401Z,100151.16
2023-04-03T14:27:27.041Z,100155.78
2023-04-03T14:29:55.290Z,100145.63
2023-04-03T14:32:23.552Z,100153.09
2023-04-03T14:34:52.460Z,100141.56
2023-04-03T14:37:22.645Z,100141.69
2023-04-03T14:39:50.686Z,100136.41
2023-04-03T14:42:20.693Z,100146.34
2023-04-03T14:44:51.362Z,100137.19
2023-04-03T14:47:31.099Z,100143.28
2023-04-03T14:50:03.568Z,100143.19
2023-04-03T14:52:33.304Z,100145.63
2023-04-03T14:55:01.933Z,100142.22
2023-04-03T14:57:30.909Z,100145.19
2023-04-03T14:59:58.920Z,100142.88
2023-04-03T15:02:29.486Z,100146.63
2023-04-03T15:04:58.040Z,100149.28
2023-04-03T15:07:28.238Z,100147.59
2023-04-03T15:09:57.769Z,100148.44
2023-04-03T15:12:26.221Z,100146.66
2023-04-03T15:15:01.818Z,100148.31
2023-04-03T15:17:31.640Z,100146.16
2023-04-03T15:20:00.111Z,100140.34
2023-04-03T15:22:27.788Z,100150.50
2023-04-03T15:24:55.771Z,100143.06
2023-04-03T15:27:23.442Z,100153.59
2023-04-03T15:29:51.126Z,100150.47
2023-04-03T15:32:19.095Z,100155.75
2023-04-03T15:34:46.809Z,100151.19
2023-04-03T15:37:14.394Z,100146.31
2023-04-03T15:39:42.407Z,100155.00
2023-04-03T15:42:09.917Z,100151.28
2023-04-03T15:44:37.590Z,100140.69
2023-04-03T15:47:05.798Z,100144.47
2023-04-03T15:49:36.553Z,100147.81
2023-04-03T15:52:04.308Z,100145.91
2023-04-03T15:54:32.514Z,100156.16
2023-04-03T15:57:00.362Z,100161.19
2023-04-03T15:59:28.047Z,100156.66
2023-04-03T16:01:56.093Z,100154.47
2023-04-03T16:04:24.152Z,100165.78
2023-04-03T16:06:52.250Z,100160.81
2023-04-03T16:09:19.906Z,100160.16
2023-04-03T16:11:47.894Z,100162.37
2023-04-03T16:14:15.589Z,100166.63
2023-04-03T16:16:43.261Z,100165.87
2023-04-03T16:19:11.514Z,100172.28
2023-04-03T16:21:39.027Z,100176.84
2023-04-03T16:24:06.852Z,100179.03
2023-04-03T16:26:34.849Z,100176.03
2023-04-03T16:29:02.569Z,100177.13
2023-04-03T16:31:30.270Z,100176.50
2023-04-03T16:33:58.334Z,100181.75
2023-04-03T16:36:27.060Z,100178.66
2023-04-03T16:38:54.744Z,100183.81
2023-04-03T16:41:22.735Z,100182.75
2023-04-03T16:43:51.375Z,100186.25
2023-04-03T16:46:19.109Z,100189.84
2023-04-03T16:48:47.139Z,100190.69
2023-04-03T16:51:14.891Z,100195.16
2023-04-03T16:53:43.263Z,100194.31
2023-04-03T16:56:11.419Z,100192.72
2023-04-03T16:58:39.068Z,100190.88
2023-04-03T17:01:13.993Z,100203.50
2023-04-03T17:03:53.935Z,100211.59
2023-04-03T17:06:33.807Z,100215.59
2023-04-03T17:09:01.867Z,100223.34
2023-04-03T17:11:30.297Z,100221.78
2023-04-03T17:13:57.865Z,100227.03
2023-04-03T17:16:26.812Z,100231.34
2023-04-03T17:18:55.228Z,100224.44
2023-04-03T17:21:23.196Z,100234.22
2023-04-03T17:23:54.991Z,100234.69
2023-04-03T17:26:22.500Z,100235.53
2023-04-03T17:28:49.970Z,100243.69
2023-04-03T17:31:18.000Z,100245.72
2023-04-03T17:33:45.693Z,100252.19
2023-04-03T17:36:13.331Z,100239.97
2023-04-03T17:38:41.592Z,100246.91
2023-04-03T17:43:57.387Z,100237.44
2023-04-03T17:49:15.266Z,100243.50
2023-04-03T17:51:42.874Z,100236.56
2023-04-03T17:54:10.808Z,100232.78
2023-04-03T17:56:38.518Z,100229.97
2023-04-03T17:59:07.123Z,100235.19
2023-04-03T18:01:37.158Z,100233.34
2023-04-03T18:04:05.899Z,100231.25
2023-04-03T18:06:35.258Z,100234.25
2023-04-03T18:09:08.012Z,100223.00
2023-04-03T18:11:36.660Z,100224.97
2023-04-03T18:14:06.087Z,100216.59
2023-04-03T18:16:34.405Z,100212.31
2023-04-03T18:19:21.381Z,100212.69
2023-04-03T18:21:51.561Z,100200.94
2023-04-03T18:24:20.774Z,100204.28
2023-04-03T18:26:54.159Z,100205.59
2023-04-03T18:29:22.415Z,100205.88
2023-04-03T18:31:53.023Z,100202.75
2023-04-03T18:34:20.732Z,100209.69
2023-04-03T18:36:49.376Z,100207.16
2023-04-03T18:39:17.059Z,100218.59
2023-04-03T18:41:45.412Z,100219.41
2023-04-03T18:44:15.102Z,100222.00
2023-04-03T18:46:42.752Z,100213.69
2023-04-03T18:49:11.832Z,100217.78
2023-04-03T18:51:40.005Z,100217.78
2023-04-03T18:54:10.951Z,100214.38
2023-04-03T18:56:39.027Z,100221.91
2023-04-03T18:59:07.060Z,100214.22
2023-04-03T19:01:34.950Z,100208.62
2023-04-03T19:04:02.743Z,100211.75
2023-04-03T19:06:30.940Z,100207.06
2023-04-03T19:08:58.626Z,100197.91
2023-04-03T19:11:26.546Z,100197.50
2023-04-03T19:14:10.357Z,100197.59
2023-04-03T19:16:42.889Z,100193.94
2023-04-03T19:19:10.838Z,100194.06
2023-04-03T19:21:41.709Z,100197.81
2023-04-03T19:24:10.397Z,100188.19
2023-04-03T19:26:39.073Z,100186.41
2023-04-03T19:29:06.979Z,100185.28
2023-04-03T19:31:35.373Z,100186.78
2023-04-03T19:34:04.367Z,100186.00
2023-04-03T19:36:32.575Z,100186.94
2023-04-03T19:39:00.244Z,100186.44
2023-04-03T19:41:30.086Z,100186.34
2023-04-03T19:43:57.934Z,100183.66
2023-04-03T19:46:26.856Z,100185.56
2023-04-03T19:48:55.270Z,100175.03
2023-04-03T19:51:23.149Z,100176.88
2023-04-03T19:53:50.825Z,100182.13
2023-04-03T19:56:21.199Z,100178.56
2023-04-03T19:58:54.515Z,100177.34
2023-04-03T20:01:27.213Z,100176.16
2023-04-03T20:03:55.485Z,100176.50
2023-04-03T20:06:23.346Z,100176.31
2023-04-03T20:08:51.012Z,100176.22
2023-04-03T20:11:19.039Z,100184.16
2023-04-03T20:13:49.024Z,100180.16
2023-04-03T20:16:17.471Z,100177.06
2023-04-03T20:18:47.207Z,100174.28
2023-04-03T20:21:15.287Z,100176.44
2023-04-03T20:23:42.822Z,100176.06
2023-04-03T20:26:19.184Z,100169.97
2023-04-03T20:28:46.950Z,100169.97
2023-04-03T20:31:15.034Z,100162.69
2023-04-03T20:33:43.192Z,100166.34
2023-04-03T20:36:10.906Z,100158.59
2023-04-03T20:38:38.851Z,100155.37
2023-04-03T20:41:06.399Z,100154.84
2023-04-03T20:43:34.594Z,100151.56
2023-04-03T20:46:03.605Z,100142.13
2023-04-03T20:48:31.561Z,100150.72
2023-04-03T20:50:59.232Z,100145.97
2023-04-03T20:53:27.745Z,100147.81
2023-04-03T20:55:56.984Z,100141.78
2023-04-03T20:58:25.411Z,100148.94
2023-04-03T21:00:57.319Z,100155.28
2023-04-03T21:03:28.485Z,100147.56
2023-04-03T21:06:04.086Z,100156.69
2023-04-03T21:08:50.348Z,100152.78
2023-04-03T21:11:37.109Z,100157.34
2023-04-03T21:14:28.130Z,100154.69
2023-04-03T21:16:56.577Z,100157.22
2023-04-03T21:19:24.235Z,100155.87
2023-04-03T21:21:52.344Z,100155.13
2023-04-03T21:24:20.453Z,100153.34
2023-04-03T21:26:48.097Z,100144.53
2023-04-03T21:29:15.992Z,100147.69
2023-04-03T21:31:57.335Z,100138.00
2023-04-03T21:34:28.934Z,100147.25
2023-04-03T21:37:04.439Z,100141.75
2023-04-03T21:39:32.496Z,100135.41
2023-04-03T21:42:00.929Z,100147.06
2023-04-03T21:44:29.020Z,100140.19
2023-04-03T21:46:56.535Z,100141.97
2023-04-03T21:49:25.659Z,100143.34
2023-04-03T21:51:53.360Z,100141.78
2023-04-03T21:54:20.933Z,100128.78
2023-04-03T21:56:49.961Z,100138.78
2023-04-03T21:59:17.474Z,100134.84
2023-04-03T22:01:45.246Z,100135.41
2023-04-03T22:04:13.418Z,100127.28
2023-04-03T22:06:41.212Z,100128.22
2023-04-03T22:09:08.822Z,100124.84
2023-04-03T22:11:38.454Z,100124.03
2023-04-03T22:14:05.988Z,100124.19
2023-04-03T22:16:33.481Z,100122.53
2023-04-03T22:19:01.704Z,100126.81
2023-04-03T22:24:15.270Z,100113.75
2023-04-03T22:26:44.750Z,100116.75
2023-04-03T22:29:13.557Z,100114.22
2023-04-03T22:31:42.624Z,100114.69
2023-04-03T22:34:10.215Z,100114.84
2023-04-03T22:36:39.098Z,100115.03
2023-04-03T22:39:07.260Z,100115.25
2023-04-03T22:41:34.736Z,100116.28
2023-04-03T22:44:02.290Z,100115.25
2023-04-03T22:46:30.240Z,100118.81
2023-04-03T22:48:59.740Z,100110.06
2023-04-03T22:51:27.233Z,100112.25
2023-04-03T22:53:55.246Z,100109.25
2023-04-03T22:56:25.312Z,100107.75
2023-04-03T22:58:53.899Z,100112.53
2023-04-03T23:01:24.425Z,100107.66
2023-04-03T23:03:52.101Z,100106.09
2023-04-03T23:06:19.723Z,100112.25
2023-04-03T23:08:47.657Z,100112.44
2023-04-03T23:11:15.086Z,100110.94
2023-04-03T23:13:44.228Z,100103.72
2023-04-03T23:16:12.343Z,100110.34
2023-04-03T23:18:40.224Z,100107.56
2023-04-03T23:21:08.738Z,100105.47
2023-04-03T23:23:36.707Z,100107.56
2023-04-03T23:26:04.626Z,100107.75
2023-04-03T23:28:32.227Z,100100.34
2023-04-03T23:31:02.126Z,100101.75
2023-04-03T23:33:31.004Z,100098.97
2023-04-03T23:35:59.416Z,100099.72
2023-04-03T23:38:27.526Z,100106.56
2023-04-03T23:40:55.152Z,100102.72
2023-04-03T23:43:22.960Z,100097.66
2023-04-03T23:45:50.881Z,100104.56
2023-04-03T23:48:18.561Z,100102.16
2023-04-03T23:50:46.393Z,100103.59
2023-04-03T23:53:14.344Z,100101.44
2023-04-03T23:55:42.198Z,100105.16
2023-04-03T23:58:11.005Z,100103.84
